Terminal Aerodrome Forecast
Issued by NWS

Home | Current Version | Previous Version | Text Only | Print | Product List | Glossary On
Versions: 1 2 3 4 5 6 7 8 9 10 11 12 13 14 15 16 17 18 19 20
918
FTUS43 KSGF 221934 AAB
TAFJLN
TAF AMD
KJLN 221934Z 2220/2318 03009KT P6SM -RA OVC010
     FM230000 36008KT P6SM OVC015
     FM230500 35008KT P6SM OVC007
     FM231000 36008KT P6SM OVC015=

USA.gov is the U.S. government's official web portal to all federal, state and local government web resources and services.